Time;durP1;ratioP1;P1;durP2;ratioP2;P2;SDS_P1;SDS_P2;PMS_P1;PMS_P2;Temp;Humidity;BMP_temperature;BMP_pressure;BME280_temperature;BME280_humidity;BME280_pressure;Samples;Min_cycle;Max_cycle;Signal;HPM_P1;HPM_P2
2023/10/30 00:00:10;;;;;;;2.35;2.15;;;;;;;10.00;58.67;93906.94;505150;29;803;-74
2023/10/30 00:00:25;;;;;;;4.35;2.20;;;;;;;10.01;58.13;93900.13;505033;29;1060;-74
2023/10/30 00:00:41;;;;;;;5.23;2.37;;;;;;;10.02;58.24;93904.38;504214;29;1580;-74
2023/10/30 00:00:56;;;;;;;5.45;2.92;;;;;;;10.03;58.13;93900.31;504331;29;1052;-74
2023/10/30 00:01:11;;;;;;;4.33;2.67;;;;;;;10.03;58.16;93905.84;503613;29;821;-74
2023/10/30 00:01:27;;;;;;;2.73;1.90;;;;;;;10.04;57.81;93904.56;506899;29;851;-74
2023/10/30 00:01:42;;;;;;;2.50;1.90;;;;;;;10.01;57.66;93888.34;506369;29;867;-74
2023/10/30 00:01:58;;;;;;;2.43;2.00;;;;;;;10.07;57.34;93902.78;503331;29;1061;-74
2023/10/30 00:02:13;;;;;;;2.60;1.85;;;;;;;10.07;57.33;93895.22;503619;29;910;-74
2023/10/30 00:02:29;;;;;;;2.80;1.90;;;;;;;10.09;57.37;93898.19;505289;29;1016;-74
2023/10/30 00:02:44;;;;;;;3.20;2.00;;;;;;;10.10;57.36;93898.94;505366;29;1915;-74
2023/10/30 00:03:00;;;;;;;2.87;2.00;;;;;;;10.03;56.59;93896.84;505423;29;1054;-73
2023/10/30 00:03:15;;;;;;;4.10;1.90;;;;;;;9.96;56.86;93901.00;505445;29;1147;-74
2023/10/30 00:03:30;;;;;;;3.70;1.77;;;;;;;9.89;56.65;93896.88;504521;29;1709;-74
2023/10/30 00:03:46;;;;;;;2.60;1.80;;;;;;;9.92;56.44;93900.56;504345;29;780;-74
2023/10/30 00:04:01;;;;;;;2.45;2.00;;;;;;;9.94;56.33;93909.78;504331;29;2169;-74
2023/10/30 00:04:18;;;;;;;3.20;2.40;;;;;;;9.94;56.57;93906.28;505381;29;1146;-74
2023/10/30 00:04:34;;;;;;;4.32;2.75;;;;;;;9.92;56.54;93900.56;505881;29;1440;-74
2023/10/30 00:04:50;;;;;;;4.80;2.70;;;;;;;9.85;56.62;93901.94;505561;29;913;-74
2023/10/30 00:05:06;;;;;;;5.68;2.88;;;;;;;9.83;56.66;93909.28;505475;29;831;-75
2023/10/30 00:05:22;;;;;;;5.35;2.95;;;;;;;9.84;56.90;93899.72;505555;29;997;-74
2023/10/30 00:05:37;;;;;;;4.23;2.97;;;;;;;9.85;56.94;93901.22;503933;29;882;-75
2023/10/30 00:05:52;;;;;;;5.20;3.35;;;;;;;9.85;57.21;93907.47;505242;29;814;-74
2023/10/30 00:06:08;;;;;;;5.57;3.17;;;;;;;9.87;57.41;93904.91;505643;29;768;-75
2023/10/30 00:06:23;;;;;;;4.97;2.83;;;;;;;9.88;57.13;93900.91;506514;29;835;-74
2023/10/30 00:06:39;;;;;;;5.40;3.30;;;;;;;9.89;57.01;93907.91;506783;29;796;-74
2023/10/30 00:06:54;;;;;;;9.82;3.85;;;;;;;9.92;57.29;93908.84;505230;29;1089;-74
2023/10/30 00:07:10;;;;;;;9.23;3.53;;;;;;;9.93;57.10;93902.06;503922;29;1425;-74
2023/10/30 00:07:27;;;;;;;4.50;3.10;;;;;;;9.91;57.14;93904.59;505591;29;894;-74
2023/10/30 00:07:43;;;;;;;4.70;3.13;;;;;;;9.91;57.05;93899.84;504763;29;1092;-74
2023/10/30 00:07:58;;;;;;;5.03;3.30;;;;;;;9.92;57.12;93897.81;505417;29;910;-74
2023/10/30 00:08:13;;;;;;;5.75;3.30;;;;;;;9.94;57.06;93901.50;505894;29;1120;-74
2023/10/30 00:08:29;;;;;;;5.93;3.17;;;;;;;9.93;57.14;93899.28;505827;29;1024;-74
2023/10/30 00:08:44;;;;;;;6.03;3.08;;;;;;;9.93;57.05;93904.81;504849;29;1128;-74
2023/10/30 00:09:00;;;;;;;5.90;2.87;;;;;;;9.94;57.09;93898.00;503635;29;980;-76
2023/10/30 00:09:17;;;;;;;6.90;2.60;;;;;;;9.97;57.13;93899.72;503840;29;854;-76
2023/10/30 00:09:32;;;;;;;5.97;2.53;;;;;;;9.99;56.78;93904.69;507540;29;939;-75
2023/10/30 00:09:48;;;;;;;3.50;2.67;;;;;;;9.98;56.94;93901.19;507230;29;775;-76
2023/10/30 00:10:03;;;;;;;4.30;2.73;;;;;;;9.97;56.75;93902.47;505363;29;1436;-76
2023/10/30 00:10:19;;;;;;;5.22;2.67;;;;;;;9.96;56.81;93898.25;505797;29;752;-76
2023/10/30 00:10:35;;;;;;;5.43;2.83;;;;;;;9.89;56.67;93902.38;506370;29;1059;-76
2023/10/30 00:10:51;;;;;;;5.07;2.92;;;;;;;9.83;57.15;93904.50;505373;29;1449;-76
2023/10/30 00:11:06;;;;;;;3.80;2.77;;;;;;;9.81;57.00;93906.34;504183;29;886;-76
2023/10/30 00:11:21;;;;;;;3.22;2.70;;;;;;;9.78;57.26;93902.63;505656;29;859;-76
2023/10/30 00:11:37;;;;;;;3.10;2.70;;;;;;;9.76;57.28;93893.38;507417;29;854;-76
2023/10/30 00:11:54;;;;;;;4.73;3.07;;;;;;;9.75;57.37;93894.66;505350;29;838;-76
2023/10/30 00:12:09;;;;;;;6.18;3.20;;;;;;;9.66;57.67;93901.34;505358;29;1125;-76
2023/10/30 00:12:25;;;;;;;6.90;3.05;;;;;;;9.62;57.81;93900.94;504787;29;1272;-76
2023/10/30 00:12:40;;;;;;;6.10;3.07;;;;;;;9.62;57.77;93898.16;502004;29;1101;-76
2023/10/30 00:12:56;;;;;;;4.93;3.08;;;;;;;9.63;57.93;93901.69;502459;29;841;-76
2023/10/30 00:13:11;;;;;;;4.40;3.00;;;;;;;9.66;57.83;93900.59;502434;29;1082;-76
2023/10/30 00:13:26;;;;;;;3.50;2.80;;;;;;;9.68;57.58;93907.06;505707;29;1595;-76
2023/10/30 00:13:42;;;;;;;3.65;2.88;;;;;;;9.56;57.79;93877.50;503976;29;1147;-76
2023/10/30 00:13:58;;;;;;;3.67;2.88;;;;;;;9.74;57.78;93904.97;505707;29;981;-76
2023/10/30 00:14:13;;;;;;;4.20;2.70;;;;;;;9.75;57.71;93903.66;505009;29;912;-76
2023/10/30 00:14:28;;;;;;;4.23;2.70;;;;;;;9.77;57.52;93901.13;504555;29;1077;-76
2023/10/30 00:14:44;;;;;;;4.05;2.95;;;;;;;9.75;57.74;93900.91;505122;29;1146;-75
2023/10/30 00:15:03;;;;;;;3.30;2.70;;;;;;;9.75;57.47;93892.63;506341;29;1135;-76
2023/10/30 00:15:18;;;;;;;3.25;2.78;;;;;;;9.78;57.63;93899.13;505405;29;1730;-76
2023/10/30 00:15:34;;;;;;;3.58;2.70;;;;;;;9.79;57.54;93900.56;507401;29;1239;-75
2023/10/30 00:15:49;;;;;;;3.43;2.50;;;;;;;9.82;57.71;93907.81;505705;29;936;-76
2023/10/30 00:16:05;;;;;;;3.73;2.63;;;;;;;9.83;57.88;93906.53;506452;29;1099;-75
2023/10/30 00:16:20;;;;;;;4.03;2.70;;;;;;;9.83;57.83;93898.25;504218;29;1488;-76
2023/10/30 00:16:35;;;;;;;4.13;2.87;;;;;;;9.83;57.86;93903.78;506257;29;961;-76
2023/10/30 00:16:51;;;;;;;4.50;2.70;;;;;;;9.84;57.69;93902.50;505409;29;1082;-76
2023/10/30 00:17:06;;;;;;;5.23;2.90;;;;;;;9.86;57.78;93899.94;505117;29;1138;-76
2023/10/30 00:17:21;;;;;;;5.40;3.07;;;;;;;9.87;57.64;93902.16;505200;29;1016;-76
2023/10/30 00:17:37;;;;;;;5.03;2.90;;;;;;;9.88;57.56;93897.38;504726;29;1134;-76
2023/10/30 00:17:52;;;;;;;6.00;3.27;;;;;;;9.90;57.80;93900.34;504758;29;1209;-76
2023/10/30 00:18:08;;;;;;;5.40;3.00;;;;;;;9.89;57.53;93896.13;506661;29;998;-76
2023/10/30 00:18:23;;;;;;;4.47;2.65;;;;;;;9.90;57.73;93892.81;506632;29;1152;-76
2023/10/30 00:18:41;;;;;;;5.03;2.83;;;;;;;9.91;57.82;93897.09;505107;29;1255;-76
2023/10/30 00:18:58;;;;;;;4.38;2.90;;;;;;;9.92;57.69;93898.53;505106;29;1098;-76
2023/10/30 00:19:13;;;;;;;3.33;2.65;;;;;;;9.93;57.74;93897.28;503657;29;1148;-76
2023/10/30 00:19:29;;;;;;;3.22;2.75;;;;;;;9.94;57.86;93890.47;505813;29;894;-76
2023/10/30 00:19:44;;;;;;;3.63;2.97;;;;;;;9.95;57.72;93893.97;505431;29;779;-76
2023/10/30 00:20:00;;;;;;;3.90;3.30;;;;;;;9.97;57.55;93896.19;505449;29;744;-76
2023/10/30 00:20:15;;;;;;;3.90;3.25;;;;;;;9.96;57.62;93901.00;505194;29;1354;-76
2023/10/30 00:20:30;;;;;;;3.80;2.80;;;;;;;9.98;57.40;93901.19;507222;29;806;-76
2023/10/30 00:20:46;;;;;;;4.47;2.73;;;;;;;9.98;57.43;93895.69;505673;29;1595;-76
2023/10/30 00:21:01;;;;;;;4.27;2.90;;;;;;;9.98;57.43;93892.94;505336;29;1021;-76
2023/10/30 00:21:17;;;;;;;4.23;2.77;;;;;;;9.99;57.38;93897.16;505051;29;795;-76
2023/10/30 00:21:32;;;;;;;3.85;2.60;;;;;;;9.99;57.61;93891.63;507459;29;949;-76
2023/10/30 00:21:47;;;;;;;4.27;2.53;;;;;;;10.00;57.56;93895.91;505926;29;1041;-76
2023/10/30 00:22:03;;;;;;;4.70;2.77;;;;;;;10.00;57.72;93890.38;505508;29;1062;-76
2023/10/30 00:22:18;;;;;;;4.10;2.80;;;;;;;10.01;57.32;93893.84;505503;29;823;-76
2023/10/30 00:22:33;;;;;;;4.63;2.90;;;;;;;10.01;57.61;93894.59;506374;29;911;-76
2023/10/30 00:22:49;;;;;;;4.30;2.80;;;;;;;10.02;57.66;93898.84;504616;29;1915;-76
2023/10/30 00:23:04;;;;;;;3.05;2.53;;;;;;;10.01;57.37;93897.38;503654;29;791;-76
2023/10/30 00:23:20;;;;;;;3.77;2.70;;;;;;;10.01;57.29;93891.84;505268;29;1121;-76
2023/10/30 00:23:36;;;;;;;4.10;2.65;;;;;;;10.03;57.55;93894.81;504968;29;1788;-76
2023/10/30 00:23:51;;;;;;;3.58;2.60;;;;;;;9.98;57.23;93890.16;505288;29;854;-76
2023/10/30 00:24:07;;;;;;;3.63;2.80;;;;;;;9.96;57.11;93895.47;503691;29;759;-76
2023/10/30 00:24:23;;;;;;;3.72;2.60;;;;;;;9.93;57.36;93891.78;504182;29;1101;-76
2023/10/30 00:24:39;;;;;;;4.40;2.63;;;;;;;9.87;57.45;93882.13;503994;29;832;-76
2023/10/30 00:24:55;;;;;;;5.90;2.65;;;;;;;9.92;57.41;93890.28;504874;29;1302;-76
2023/10/30 00:25:10;;;;;;;4.95;2.50;;;;;;;9.94;57.19;93895.25;505528;29;1101;-76
2023/10/30 00:25:26;;;;;;;4.07;2.63;;;;;;;9.94;57.60;93893.25;506643;29;874;-76
2023/10/30 00:25:41;;;;;;;4.45;2.85;;;;;;;9.96;57.15;93887.22;505113;29;813;-76
2023/10/30 00:25:57;;;;;;;3.50;2.57;;;;;;;9.94;57.46;93887.72;504653;29;1123;-76
2023/10/30 00:26:12;;;;;;;3.95;2.80;;;;;;;9.95;57.34;93893.97;505455;29;938;-76
2023/10/30 00:26:29;;;;;;;4.10;2.70;;;;;;;9.94;57.01;93884.22;506891;29;792;-76
2023/10/30 00:26:44;;;;;;;3.83;2.40;;;;;;;9.94;57.17;93887.72;506497;29;886;-76
2023/10/30 00:27:00;;;;;;;3.13;2.17;;;;;;;9.94;57.38;93890.47;505490;29;1042;-76
2023/10/30 00:27:16;;;;;;;3.08;2.15;;;;;;;9.96;56.96;93891.97;504997;29;1695;-76
2023/10/30 00:27:31;;;;;;;4.45;2.60;;;;;;;9.94;57.08;93892.50;505206;29;959;-76
2023/10/30 00:27:47;;;;;;;5.60;2.73;;;;;;;9.90;56.94;93889.31;504426;29;934;-76
2023/10/30 00:28:02;;;;;;;6.10;3.15;;;;;;;9.87;56.96;93882.13;505559;29;768;-76
2023/10/30 00:28:18;;;;;;;4.63;3.10;;;;;;;9.83;56.89;93885.19;505929;29;967;-76
2023/10/30 00:28:34;;;;;;;3.40;2.72;;;;;;;9.81;56.81;93892.53;507482;29;858;-76
2023/10/30 00:28:51;;;;;;;4.20;2.65;;;;;;;9.81;56.60;93889.78;505740;29;1026;-76
2023/10/30 00:29:07;;;;;;;3.40;2.42;;;;;;;9.80;56.65;93883.53;505495;29;1132;-76
2023/10/30 00:29:22;;;;;;;3.40;2.50;;;;;;;9.81;56.47;93881.50;505626;29;779;-76
2023/10/30 00:29:39;;;;;;;3.60;2.50;;;;;;;9.80;56.41;93886.28;503384;29;898;-76
2023/10/30 00:29:54;;;;;;;4.07;2.75;;;;;;;9.78;56.44;93893.59;503085;29;1754;-76
2023/10/30 00:30:10;;;;;;;4.43;2.80;;;;;;;9.77;56.52;93884.56;503391;29;886;-76
2023/10/30 00:30:28;;;;;;;3.72;2.75;;;;;;;9.75;56.51;93891.91;504756;29;1045;-76
2023/10/30 00:30:44;;;;;;;4.13;3.10;;;;;;;9.72;56.56;93884.69;504899;29;929;-76
2023/10/30 00:31:00;;;;;;;3.63;2.90;;;;;;;9.70;56.88;93887.25;505257;29;862;-75
2023/10/30 00:31:15;;;;;;;3.58;2.72;;;;;;;9.42;56.64;93849.19;504643;29;1653;-75
2023/10/30 00:31:30;;;;;;;4.70;2.90;;;;;;;9.72;56.87;93887.47;505333;29;843;-75
2023/10/30 00:31:46;;;;;;;4.10;2.97;;;;;;;9.74;56.86;93887.66;505053;29;815;-75
2023/10/30 00:32:01;;;;;;;4.00;3.10;;;;;;;9.75;56.56;93883.63;504978;29;1148;-75
2023/10/30 00:32:16;;;;;;;3.72;2.90;;;;;;;9.76;56.58;93887.88;503612;29;1076;-75
2023/10/30 00:32:32;;;;;;;5.40;3.27;;;;;;;9.77;56.69;93889.34;507430;29;842;-75
2023/10/30 00:32:47;;;;;;;8.27;3.83;;;;;;;9.79;56.52;93892.31;504673;29;1615;-75
2023/10/30 00:33:03;;;;;;;6.43;3.63;;;;;;;9.80;56.67;93889.03;504563;29;823;-75
2023/10/30 00:33:18;;;;;;;4.13;3.07;;;;;;;9.81;56.79;93892.53;504537;29;1072;-75
2023/10/30 00:33:33;;;;;;;4.43;2.60;;;;;;;9.81;56.59;93887.03;505507;29;822;-75
2023/10/30 00:33:50;;;;;;;7.20;2.88;;;;;;;9.83;56.64;93887.94;504407;29;843;-75
2023/10/30 00:34:09;;;;;;;6.87;3.17;;;;;;;9.84;56.74;93888.69;505673;29;1013;-75
2023/10/30 00:34:25;;;;;;;5.72;3.53;;;;;;;9.83;56.63;93887.94;506762;29;876;-75
2023/10/30 00:34:41;;;;;;;5.80;3.33;;;;;;;9.81;56.79;93889.78;506593;29;1034;-75
2023/10/30 00:34:56;;;;;;;5.30;3.03;;;;;;;9.81;56.89;93892.53;504906;29;1143;-75
2023/10/30 00:35:12;;;;;;;4.82;2.88;;;;;;;9.81;56.65;93892.53;505530;29;1148;-75
2023/10/30 00:35:28;;;;;;;4.40;2.42;;;;;;;9.82;57.02;93894.00;505801;29;866;-75
2023/10/30 00:35:43;;;;;;;4.30;2.70;;;;;;;9.82;57.00;93891.25;505083;29;1053;-75
2023/10/30 00:35:58;;;;;;;5.13;3.00;;;;;;;9.81;56.92;93892.53;505286;29;847;-75
2023/10/30 00:36:14;;;;;;;5.20;2.78;;;;;;;9.83;57.12;93884.47;505659;29;772;-75
2023/10/30 00:36:29;;;;;;;4.07;2.53;;;;;;;9.84;56.83;93899.72;505445;29;1061;-76
2023/10/30 00:36:44;;;;;;;3.87;2.40;;;;;;;9.84;57.04;93894.97;504429;29;764;-76
2023/10/30 00:37:00;;;;;;;3.60;2.40;;;;;;;9.83;56.87;93893.47;503428;29;1441;-76
2023/10/30 00:37:15;;;;;;;5.17;2.60;;;;;;;9.82;57.10;93888.50;505430;29;775;-75
2023/10/30 00:37:32;;;;;;;5.72;2.70;;;;;;;9.81;57.24;93889.78;504195;29;1448;-75
2023/10/30 00:37:48;;;;;;;3.85;2.78;;;;;;;9.82;57.15;93885.75;503179;29;950;-76
2023/10/30 00:38:03;;;;;;;4.17;2.83;;;;;;;9.81;57.25;93885.00;504568;29;768;-76
2023/10/30 00:38:19;;;;;;;3.65;2.70;;;;;;;9.81;57.32;93890.50;505476;29;1075;-76
2023/10/30 00:38:34;;;;;;;3.43;2.43;;;;;;;9.82;57.23;93885.75;507371;29;795;-76
2023/10/30 00:38:49;;;;;;;3.77;2.80;;;;;;;9.82;57.03;93891.25;507337;29;949;-76
2023/10/30 00:39:05;;;;;;;3.80;3.03;;;;;;;9.81;57.16;93887.03;507303;29;784;-76
2023/10/30 00:39:21;;;;;;;4.20;2.72;;;;;;;9.81;57.38;93887.75;507519;29;901;-76
2023/10/30 00:39:37;;;;;;;4.00;2.73;;;;;;;9.81;57.31;93889.78;505333;29;1376;-76
2023/10/30 00:39:52;;;;;;;3.85;2.78;;;;;;;9.83;57.29;93892.75;505142;29;1210;-76
2023/10/30 00:40:08;;;;;;;4.80;2.60;;;;;;;9.82;57.39;93892.00;505391;29;760;-76
2023/10/30 00:40:24;;;;;;;4.50;2.78;;;;;;;9.82;57.64;93891.25;506051;29;894;-76
2023/10/30 00:40:39;;;;;;;3.55;2.92;;;;;;;9.82;57.34;93891.25;507192;29;983;-76
2023/10/30 00:40:56;;;;;;;4.13;2.77;;;;;;;9.82;57.60;93894.00;506114;29;1353;-76
2023/10/30 00:41:11;;;;;;;4.78;2.75;;;;;;;9.80;57.41;93891.78;503145;29;992;-76
2023/10/30 00:41:26;;;;;;;4.03;2.47;;;;;;;9.81;57.66;93892.53;505079;29;764;-77
2023/10/30 00:41:42;;;;;;;3.33;2.15;;;;;;;9.80;57.71;93894.56;504950;29;771;-76
2023/10/30 00:42:00;;;;;;;3.57;2.30;;;;;;;9.80;57.51;93893.81;505138;29;783;-76
2023/10/30 00:42:16;;;;;;;3.65;2.80;;;;;;;9.81;57.51;93896.03;505149;29;878;-77
2023/10/30 00:42:31;;;;;;;3.13;2.60;;;;;;;9.80;57.66;93889.03;505500;29;800;-76
2023/10/30 00:42:47;;;;;;;3.37;2.30;;;;;;;9.80;57.51;93891.03;505111;29;1918;-76
2023/10/30 00:43:02;;;;;;;3.97;2.55;;;;;;;9.82;57.28;93892.00;504596;29;1220;-77
2023/10/30 00:43:17;;;;;;;5.23;2.70;;;;;;;9.82;57.52;93897.50;503686;29;1300;-76
2023/10/30 00:43:33;;;;;;;5.45;2.90;;;;;;;9.83;57.15;93893.47;507288;29;1109;-76
2023/10/30 00:43:48;;;;;;;3.70;2.90;;;;;;;9.83;57.30;93895.50;504580;29;976;-76
2023/10/30 00:44:03;;;;;;;3.73;2.43;;;;;;;9.79;57.03;93895.06;506136;29;1337;-76
2023/10/30 00:44:19;;;;;;;4.45;2.20;;;;;;;9.72;57.14;93892.97;504496;29;1393;-76
2023/10/30 00:44:37;;;;;;;4.27;2.50;;;;;;;9.67;57.28;93891.06;503620;29;1465;-76
2023/10/30 00:44:53;;;;;;;3.60;2.43;;;;;;;9.68;56.85;93904.31;504992;29;916;-76
2023/10/30 00:45:08;;;;;;;4.07;2.33;;;;;;;9.68;56.78;93898.06;503148;29;902;-76
2023/10/30 00:45:24;;;;;;;4.20;2.20;;;;;;;9.69;56.77;93894.78;504601;29;1443;-76
2023/10/30 00:45:40;;;;;;;3.10;2.00;;;;;;;9.70;56.55;93898.28;505096;29;837;-76
2023/10/30 00:45:55;;;;;;;2.30;2.00;;;;;;;9.69;56.50;93899.53;505133;29;1373;-77
2023/10/30 00:46:10;;;;;;;2.30;2.00;;;;;;;9.69;56.60;93888.50;503532;29;1513;-76
2023/10/30 00:46:26;;;;;;;3.15;2.10;;;;;;;9.70;56.33;93895.53;505291;29;1378;-77
2023/10/30 00:46:41;;;;;;;4.37;2.40;;;;;;;9.70;56.53;93895.53;504398;29;1417;-77
2023/10/30 00:46:56;;;;;;;3.63;2.40;;;;;;;9.71;56.58;93892.22;505474;29;934;-77
2023/10/30 00:47:12;;;;;;;3.30;2.40;;;;;;;9.65;56.53;93896.38;504648;29;1117;-77
2023/10/30 00:47:27;;;;;;;4.13;2.25;;;;;;;9.64;56.25;93892.88;503311;29;890;-76
2023/10/30 00:47:42;;;;;;;4.70;2.10;;;;;;;9.65;56.43;93896.38;503160;29;1458;-76
2023/10/30 00:47:58;;;;;;;5.00;2.10;;;;;;;9.66;56.68;93900.59;503644;29;831;-77
2023/10/30 00:48:13;;;;;;;4.70;2.35;;;;;;;9.66;56.52;93897.84;503433;29;830;-77
2023/10/30 00:48:29;;;;;;;3.50;2.60;;;;;;;9.66;56.55;93901.34;505104;29;1176;-77
2023/10/30 00:48:44;;;;;;;3.25;2.67;;;;;;;9.66;56.24;93895.84;506874;29;1723;-76
2023/10/30 00:49:00;;;;;;;2.87;2.53;;;;;;;9.67;56.20;93899.34;505556;29;874;-76
2023/10/30 00:49:15;;;;;;;2.72;2.30;;;;;;;9.67;56.18;93893.81;503780;29;1422;-76
2023/10/30 00:49:31;;;;;;;3.67;2.53;;;;;;;9.35;56.04;93849.88;503353;29;1050;-76
2023/10/30 00:49:46;;;;;;;4.00;2.65;;;;;;;9.66;56.02;93898.59;504936;29;1097;-76
2023/10/30 00:50:02;;;;;;;3.73;2.87;;;;;;;9.69;55.77;93899.53;505657;29;854;-76
2023/10/30 00:50:17;;;;;;;3.85;3.17;;;;;;;9.56;55.98;93877.50;505381;29;775;-77
2023/10/30 00:50:32;;;;;;;4.50;3.10;;;;;;;9.60;56.10;93897.97;505471;29;858;-77
2023/10/30 00:50:48;;;;;;;5.37;3.17;;;;;;;9.58;56.10;93897.00;505616;29;831;-77
2023/10/30 00:51:03;;;;;;;5.18;3.15;;;;;;;9.58;55.97;93894.25;505789;29;775;-77
2023/10/30 00:51:19;;;;;;;4.30;2.90;;;;;;;9.51;56.07;93881.09;505449;29;917;-77
2023/10/30 00:51:34;;;;;;;3.53;2.80;;;;;;;9.60;56.22;93897.22;505183;29;1176;-76
2023/10/30 00:51:49;;;;;;;3.83;2.87;;;;;;;9.60;56.23;93894.47;505302;29;1319;-76
2023/10/30 00:52:05;;;;;;;4.00;2.90;;;;;;;9.60;56.00;93897.22;505299;29;1216;-76
2023/10/30 00:52:20;;;;;;;3.53;2.80;;;;;;;9.58;56.04;93895.00;503805;29;1294;-77
2023/10/30 00:52:36;;;;;;;3.60;2.97;;;;;;;9.56;56.26;93891.28;504619;29;1369;-77
2023/10/30 00:52:51;;;;;;;3.53;2.95;;;;;;;9.57;56.23;93892.78;505257;29;1370;-76
2023/10/30 00:53:07;;;;;;;3.83;2.97;;;;;;;9.56;56.10;93897.53;506702;29;1184;-76
2023/10/30 00:53:23;;;;;;;3.38;2.67;;;;;;;9.55;56.26;93893.28;505539;29;1333;-76
2023/10/30 00:53:38;;;;;;;2.83;2.37;;;;;;;9.55;56.41;93901.56;505175;29;1164;-76
2023/10/30 00:53:53;;;;;;;3.10;2.50;;;;;;;9.56;56.49;93891.28;505199;29;1302;-76
2023/10/30 00:54:09;;;;;;;5.00;2.63;;;;;;;9.56;56.48;93889.28;505555;29;788;-77
2023/10/30 00:54:24;;;;;;;4.82;2.60;;;;;;;9.56;56.48;93891.28;503464;29;958;-76
2023/10/30 00:54:40;;;;;;;4.10;2.53;;;;;;;9.56;56.54;93896.78;503507;29;910;-77
2023/10/30 00:54:55;;;;;;;4.85;2.60;;;;;;;9.55;56.42;93892.56;503729;29;803;-76
2023/10/30 00:55:11;;;;;;;4.33;2.80;;;;;;;9.56;56.42;93888.53;503661;29;867;-77
2023/10/30 00:55:26;;;;;;;4.10;3.03;;;;;;;9.55;56.57;93889.81;503915;29;1137;-77
2023/10/30 00:55:41;;;;;;;4.20;3.20;;;;;;;9.55;56.46;93884.31;505450;29;776;-75
2023/10/30 00:55:57;;;;;;;5.00;3.40;;;;;;;9.58;56.64;93891.50;505526;29;764;-76
2023/10/30 00:56:12;;;;;;;5.90;3.58;;;;;;;9.56;56.48;93891.28;505481;29;1327;-76
2023/10/30 00:56:27;;;;;;;4.70;3.30;;;;;;;9.56;56.65;93891.28;504157;29;1240;-75
2023/10/30 00:56:44;;;;;;;3.77;2.93;;;;;;;9.57;56.37;93893.50;503596;29;926;-75
2023/10/30 00:56:59;;;;;;;5.57;3.00;;;;;;;9.58;56.33;93891.50;503740;29;858;-75
2023/10/30 00:57:15;;;;;;;5.57;3.10;;;;;;;9.56;56.19;93892.03;503564;29;885;-75
2023/10/30 00:57:30;;;;;;;3.65;2.90;;;;;;;9.56;56.63;93894.03;503469;29;1055;-75
2023/10/30 00:57:46;;;;;;;4.47;2.97;;;;;;;9.56;56.57;93891.28;501287;29;839;-75
2023/10/30 00:58:02;;;;;;;5.95;3.20;;;;;;;9.55;56.55;93901.56;503139;29;1102;-75
2023/10/30 00:58:18;;;;;;;6.10;3.13;;;;;;;9.56;56.48;93896.78;503425;29;1316;-75
2023/10/30 00:58:34;;;;;;;5.25;2.80;;;;;;;9.53;56.43;93892.38;503463;29;874;-75
2023/10/30 00:58:49;;;;;;;5.57;2.90;;;;;;;9.50;56.45;93891.41;501640;29;2242;-75
2023/10/30 00:59:04;;;;;;;5.60;2.77;;;;;;;9.48;56.90;93890.44;501545;29;860;-75
2023/10/30 00:59:20;;;;;;;4.32;2.47;;;;;;;9.44;56.62;93892.78;501420;29;792;-75
2023/10/30 00:59:35;;;;;;;3.73;2.30;;;;;;;9.48;56.94;93901.47;501827;29;822;-75
2023/10/30 00:59:50;;;;;;;3.05;2.20;;;;;;;9.49;56.65;93894.66;503985;29;1185;-75
2023/10/30 01:00:06;;;;;;;3.17;2.50;;;;;;;9.23;56.77;93861.59;505318;29;929;-75
2023/10/30 01:00:22;;;;;;;4.68;2.55;;;;;;;9.45;56.69;93897.75;505074;29;2086;-75
2023/10/30 01:00:38;;;;;;;3.43;2.20;;;;;;;9.36;56.88;93881.66;505237;29;859;-75
2023/10/30 01:00:53;;;;;;;1.93;1.73;;;;;;;9.45;56.98;93894.25;505558;29;989;-75
2023/10/30 01:01:10;;;;;;;4.30;1.90;;;;;;;9.45;56.87;93886.00;505460;29;1062;-75
2023/10/30 01:01:25;;;;;;;4.68;2.28;;;;;;;9.48;56.88;93898.72;505445;29;866;-75
2023/10/30 01:01:41;;;;;;;4.23;2.23;;;;;;;9.49;57.04;93900.94;505418;29;831;-75
2023/10/30 01:01:56;;;;;;;4.20;2.20;;;;;;;9.51;56.78;93903.16;505493;29;1260;-75
2023/10/30 01:02:12;;;;;;;2.97;2.10;;;;;;;9.52;56.71;93896.38;504469;29;1358;-75
2023/10/30 01:02:27;;;;;;;3.27;2.10;;;;;;;9.54;56.71;93893.84;503553;29;784;-75
2023/10/30 01:02:44;;;;;;;2.93;2.20;;;;;;;9.55;56.31;93896.03;503478;29;1915;-75
2023/10/30 01:02:59;;;;;;;4.15;2.30;;;;;;;9.50;56.43;93893.41;503885;29;983;-75
2023/10/30 01:03:15;;;;;;;4.63;2.20;;;;;;;9.52;56.34;93896.38;503583;29;1192;-75
2023/10/30 01:03:30;;;;;;;2.45;1.88;;;;;;;9.53;56.43;93893.09;503717;29;863;-75
2023/10/30 01:03:46;;;;;;;2.05;1.85;;;;;;;9.53;56.20;93895.13;505089;29;1101;-75
2023/10/30 01:04:01;;;;;;;2.80;2.00;;;;;;;9.55;56.21;93896.03;505184;29;1171;-75
2023/10/30 01:04:16;;;;;;;2.83;1.90;;;;;;;9.54;55.93;93893.84;504032;29;1217;-75
2023/10/30 01:04:32;;;;;;;2.00;1.80;;;;;;;9.54;56.19;93894.59;505280;29;1392;-75
2023/10/30 01:04:47;;;;;;;2.20;1.70;;;;;;;9.54;56.05;93894.59;501459;29;1244;-75
2023/10/30 01:05:03;;;;;;;2.85;2.13;;;;;;;9.50;55.81;93890.66;501502;29;959;-75
2023/10/30 01:05:18;;;;;;;2.83;2.40;;;;;;;9.50;56.23;93896.16;501484;29;887;-75
2023/10/30 01:05:34;;;;;;;2.40;2.13;;;;;;;9.49;56.21;93902.94;501542;29;1168;-75
2023/10/30 01:05:59;;;;;;;2.80;2.05;;;;;;;9.20;56.21;93857.94;503269;29;875;-75
2023/10/30 01:06:15;;;;;;;2.97;1.98;;;;;;;9.46;56.05;93895.75;503231;29;1018;-75
2023/10/30 01:06:30;;;;;;;2.23;1.80;;;;;;;9.46;56.10;93893.75;505302;29;1176;-74
2023/10/30 01:06:46;;;;;;;2.60;2.10;;;;;;;9.47;56.29;93895.22;504988;29;1313;-73
2023/10/30 01:07:02;;;;;;;3.38;2.00;;;;;;;9.48;56.17;93899.47;505516;29;862;-76
2023/10/30 01:07:18;;;;;;;3.78;2.10;;;;;;;9.47;56.07;93892.47;505498;29;1150;-76
2023/10/30 01:07:33;;;;;;;2.83;2.30;;;;;;;9.49;56.34;93900.19;505290;29;863;-76
2023/10/30 01:07:48;;;;;;;4.30;2.23;;;;;;;9.50;56.36;93904.44;504854;29;1200;-76
2023/10/30 01:08:08;;;;;;;4.78;2.25;;;;;;;9.49;56.66;93895.41;505317;29;1148;-76
2023/10/30 01:08:25;;;;;;;4.22;2.38;;;;;;;9.50;56.36;93901.69;505199;29;1290;-75
2023/10/30 01:08:40;;;;;;;3.63;2.17;;;;;;;9.48;56.52;93884.94;504349;29;1314;-75
2023/10/30 01:08:56;;;;;;;3.00;2.40;;;;;;;9.49;56.29;93895.41;503592;29;1200;-76
2023/10/30 01:09:11;;;;;;;2.93;2.50;;;;;;;9.48;56.56;93893.22;505385;29;835;-76
2023/10/30 01:09:27;;;;;;;3.53;2.53;;;;;;;9.50;56.54;93896.16;503626;29;1424;-76
2023/10/30 01:09:43;;;;;;;3.20;2.40;;;;;;;9.50;56.91;93894.16;503388;29;823;-76
2023/10/30 01:09:58;;;;;;;2.75;2.45;;;;;;;9.51;56.66;93892.13;503890;29;1346;-76
2023/10/30 01:10:14;;;;;;;2.90;2.50;;;;;;;9.50;57.01;93893.41;505273;29;1251;-76
2023/10/30 01:10:29;;;;;;;3.03;2.45;;;;;;;9.51;57.08;93892.88;504526;29;1274;-76
2023/10/30 01:10:44;;;;;;;3.57;2.40;;;;;;;9.52;56.92;93890.88;504102;29;1322;-76
2023/10/30 01:11:00;;;;;;;3.60;2.30;;;;;;;9.52;57.00;93896.38;505570;29;1317;-76
2023/10/30 01:11:15;;;;;;;2.97;2.13;;;;;;;9.50;56.99;93888.66;505070;29;1326;-76
2023/10/30 01:11:31;;;;;;;2.63;2.23;;;;;;;9.51;57.21;93892.13;504666;29;894;-76
2023/10/30 01:11:46;;;;;;;3.47;2.60;;;;;;;9.51;57.29;93889.38;505266;29;1378;-76
2023/10/30 01:12:01;;;;;;;3.33;2.47;;;;;;;9.51;57.33;93883.84;505845;29;1144;-77
2023/10/30 01:12:17;;;;;;;3.03;2.42;;;;;;;9.50;57.46;93890.66;504408;29;1207;-77
2023/10/30 01:12:32;;;;;;;3.10;2.40;;;;;;;9.50;57.25;93880.38;503462;29;819;-76
2023/10/30 01:12:48;;;;;;;2.53;2.17;;;;;;;9.51;57.59;93892.13;505460;29;1220;-76
2023/10/30 01:13:03;;;;;;;2.70;2.05;;;;;;;9.46;57.48;93879.22;505826;29;788;-76
2023/10/30 01:13:19;;;;;;;4.13;2.13;;;;;;;9.40;57.41;93871.03;505093;29;1224;-76
2023/10/30 01:13:36;;;;;;;4.00;2.30;;;;;;;9.50;57.40;93885.16;506757;29;1095;-76
2023/10/30 01:13:51;;;;;;;3.22;2.20;;;;;;;9.50;57.38;93885.16;507257;29;964;-76
2023/10/30 01:14:06;;;;;;;3.67;2.40;;;;;;;9.47;57.60;93878.69;505627;29;1118;-76
2023/10/30 01:14:22;;;;;;;4.10;2.47;;;;;;;9.50;57.68;93882.38;506036;29;1142;-76
2023/10/30 01:14:38;;;;;;;3.10;2.23;;;;;;;9.49;57.67;93881.66;507201;29;1090;-76
2023/10/30 01:14:53;;;;;;;2.83;2.38;;;;;;;9.51;57.69;93886.63;507051;29;1192;-76
2023/10/30 01:15:09;;;;;;;2.90;2.33;;;;;;;9.50;57.61;93885.91;507044;29;1173;-76
2023/10/30 01:15:24;;;;;;;3.72;2.15;;;;;;;9.48;57.70;93882.94;507497;29;1074;-76
2023/10/30 01:15:39;;;;;;;3.57;2.13;;;;;;;9.47;57.89;93877.94;507311;29;1018;-77
2023/10/30 01:15:55;;;;;;;6.30;2.27;;;;;;;9.49;57.94;93891.91;506944;29;1137;-76
2023/10/30 01:16:11;;;;;;;7.13;2.28;;;;;;;9.48;57.66;93877.41;506348;29;1146;-77
2023/10/30 01:16:26;;;;;;;3.60;1.98;;;;;;;9.47;57.96;93880.69;505669;29;1119;-77
2023/10/30 01:16:41;;;;;;;2.80;1.90;;;;;;;9.45;57.68;93883.97;507452;29;1117;-77
2023/10/30 01:16:57;;;;;;;3.90;2.40;;;;;;;9.46;58.14;93882.72;507565;29;1134;-75